createdAt,value
2018-05-12T03:01:03.792Z,12.82
2018-05-12T03:02:04.928Z,12.76
2018-05-12T03:03:04.072Z,12.85
2018-05-12T03:04:04.216Z,12.82
2018-05-12T03:05:04.355Z,12.75
2018-05-12T03:06:04.546Z,12.83
2018-05-12T03:07:05.443Z,12.83
2018-05-12T03:08:04.891Z,12.82
2018-05-12T03:09:04.995Z,12.85
2018-05-12T03:10:05.151Z,12.82
2018-05-12T03:11:05.270Z,12.82
2018-05-12T03:12:13.424Z,12.78
2018-05-12T03:13:05.617Z,12.78
2018-05-12T03:14:05.739Z,12.78
2018-05-12T03:15:05.914Z,12.78
2018-05-12T03:16:06.105Z,12.68
2018-05-12T03:17:06.937Z,12.67
2018-05-12T03:18:06.454Z,12.72
2018-05-12T03:19:06.593Z,12.70
2018-05-12T03:20:06.802Z,12.64
2018-05-12T03:21:06.925Z,12.64
2018-05-12T03:22:07.085Z,12.58
2018-05-12T03:23:07.241Z,12.67
2018-05-12T03:24:07.449Z,12.61
2018-05-12T03:25:07.609Z,12.61
2018-05-12T03:26:07.737Z,12.65
2018-05-12T03:27:07.959Z,12.64
2018-05-12T03:28:08.893Z,12.70
2018-05-12T03:29:08.216Z,12.68
2018-05-12T03:30:08.381Z,12.55
2018-05-12T03:31:08.544Z,12.55
2018-05-12T03:32:08.714Z,12.53
2018-05-12T03:33:08.901Z,12.65
2018-05-12T03:34:09.027Z,12.62
2018-05-12T03:35:09.163Z,12.55
2018-05-12T03:36:09.324Z,12.49
2018-05-12T03:37:10.447Z,12.58
2018-05-12T03:38:09.696Z,12.57
2018-05-12T03:39:09.873Z,12.53
2018-05-12T03:40:24.885Z,12.58
2018-05-12T03:41:10.207Z,12.53
2018-05-12T03:42:10.326Z,12.47
2018-05-12T03:43:10.531Z,12.42
2018-05-12T03:44:10.698Z,12.45
2018-05-12T03:45:10.853Z,12.46
2018-05-12T03:46:10.997Z,12.36
2018-05-12T03:47:11.162Z,12.32
2018-05-12T03:48:11.920Z,12.46
2018-05-12T03:49:11.456Z,12.36
2018-05-12T03:50:11.624Z,12.40
2018-05-12T03:51:11.780Z,12.35
2018-05-12T03:52:11.926Z,12.39
2018-05-12T03:53:12.929Z,12.35
2018-05-12T03:54:12.353Z,12.31
2018-05-12T03:55:12.511Z,12.37
2018-05-12T03:56:12.670Z,12.39
2018-05-12T03:57:12.806Z,12.29
2018-05-12T03:58:13.935Z,12.29
2018-05-12T03:59:13.215Z,12.39
2018-05-12T04:00:13.394Z,12.29
2018-05-12T04:01:13.547Z,12.29
2018-05-12T04:02:13.728Z,12.25
2018-05-12T04:03:13.859Z,12.21
2018-05-12T04:04:14.019Z,12.24
2018-05-12T04:05:14.191Z,12.27
2018-05-12T04:06:14.378Z,12.29
2018-05-12T04:07:14.512Z,12.28
2018-05-12T04:08:14.733Z,12.29
2018-05-12T04:09:14.899Z,12.28
2018-05-12T04:10:15.089Z,12.06
2018-05-12T04:11:15.190Z,12.25
2018-05-12T04:12:15.360Z,12.15
2018-05-12T04:13:15.505Z,12.07
2018-05-12T04:14:15.667Z,12.06
2018-05-12T04:15:15.861Z,12.03
2018-05-12T04:16:16.944Z,12.06
2018-05-12T04:17:16.201Z,11.97
2018-05-12T04:18:16.423Z,12.00
2018-05-12T04:19:16.645Z,11.94
2018-05-12T04:20:16.717Z,11.88
2018-05-12T04:21:16.895Z,11.69
2018-05-12T04:22:17.017Z,11.78
2018-05-12T04:23:17.196Z,11.73
2018-05-12T04:24:17.393Z,11.72
2018-05-12T04:25:17.547Z,11.68
2018-05-12T04:26:17.695Z,11.69
2018-05-12T04:27:17.872Z,11.69
2018-05-12T04:28:18.011Z,11.62
2018-05-12T04:29:18.190Z,11.68
2018-05-12T04:30:18.324Z,11.72
2018-05-12T04:31:18.506Z,11.68
2018-05-12T04:32:18.640Z,11.72
2018-05-12T04:33:18.810Z,11.83
2018-05-12T04:34:19.002Z,11.87
2018-05-12T04:35:19.148Z,11.75
2018-05-12T04:36:19.310Z,11.83
2018-05-12T04:37:19.509Z,11.87
2018-05-12T04:38:19.622Z,11.80
2018-05-12T04:39:19.854Z,11.81
2018-05-12T04:40:20.007Z,11.90
2018-05-12T04:41:20.192Z,11.94
2018-05-12T04:42:20.338Z,11.97
2018-05-12T04:43:20.564Z,11.94
2018-05-12T04:44:20.588Z,11.97
2018-05-12T04:45:20.790Z,11.95
2018-05-12T04:46:20.946Z,12.02
2018-05-12T04:47:21.111Z,11.90
2018-05-12T04:48:21.292Z,11.95
2018-05-12T04:49:21.441Z,11.97
2018-05-12T04:50:21.606Z,12.02
2018-05-12T04:51:21.787Z,11.91
2018-05-12T04:52:23.403Z,11.90
2018-05-12T04:53:22.082Z,12.00
2018-05-12T04:54:22.248Z,12.00
2018-05-12T04:55:22.379Z,11.99
2018-05-12T04:56:22.604Z,12.00
2018-05-12T04:57:22.750Z,11.91
2018-05-12T04:58:22.922Z,11.84
2018-05-12T04:59:23.044Z,11.94
2018-05-12T05:00:23.215Z,11.95
2018-05-12T05:01:23.371Z,11.94
2018-05-12T05:02:23.580Z,12.06
2018-05-12T05:03:23.756Z,12.03
2018-05-12T05:04:23.932Z,11.94
2018-05-12T05:05:24.114Z,12.06
2018-05-12T05:06:24.216Z,12.15
2018-05-12T05:07:24.399Z,12.07
2018-05-12T05:08:24.579Z,12.07
2018-05-12T05:09:24.697Z,12.12
2018-05-12T05:10:24.890Z,12.25
2018-05-12T05:11:25.038Z,12.24
2018-05-12T05:12:25.216Z,12.32
2018-05-12T05:13:25.387Z,12.28
2018-05-12T05:14:25.577Z,12.37
2018-05-12T05:15:25.695Z,12.36
2018-05-12T05:16:25.871Z,12.35
2018-05-12T05:17:26.075Z,12.35
2018-05-12T05:18:26.225Z,12.37
2018-05-12T05:19:26.435Z,12.39
2018-05-12T05:20:27.447Z,12.43
2018-05-12T05:21:26.724Z,12.43
2018-05-12T05:22:26.911Z,12.58
2018-05-12T05:23:31.951Z,12.65
2018-05-12T05:24:27.213Z,12.61
2018-05-12T05:25:27.446Z,12.64
2018-05-12T05:26:27.605Z,12.73
2018-05-12T05:27:27.793Z,12.79
2018-05-12T05:28:27.900Z,12.86
2018-05-12T05:29:28.026Z,12.87
2018-05-12T05:30:28.972Z,12.97
2018-05-12T05:31:28.364Z,13.08
2018-05-12T05:32:29.477Z,13.13
2018-05-12T05:33:28.747Z,13.13
2018-05-12T05:34:28.927Z,13.19
2018-05-12T05:35:29.079Z,13.35
2018-05-12T05:36:29.210Z,13.33
2018-05-12T05:37:29.965Z,13.42
2018-05-12T05:38:29.491Z,13.44
2018-05-12T05:39:29.691Z,13.53
2018-05-12T05:40:29.859Z,13.49
2018-05-12T05:41:45.080Z,13.63
2018-05-12T05:42:30.115Z,13.57
2018-05-12T05:43:59.480Z,13.68
2018-05-12T05:44:31.474Z,13.63
2018-05-12T05:45:30.626Z,13.67
2018-05-12T05:46:30.778Z,13.74
2018-05-12T05:47:30.992Z,13.65
2018-05-12T05:48:31.133Z,13.81
2018-05-12T05:49:31.242Z,13.79
2018-05-12T05:50:31.421Z,13.85
2018-05-12T05:51:31.593Z,14.03
2018-05-12T05:52:31.743Z,14.12
2018-05-12T05:53:31.933Z,14.15
2018-05-12T05:54:32.913Z,14.26
2018-05-12T05:57:10.869Z,14.36
2018-05-12T05:58:05.413Z,14.50
2018-05-12T05:59:05.576Z,14.48
2018-05-12T06:00:05.793Z,14.65
2018-05-12T06:01:05.909Z,14.66
2018-05-12T06:02:06.111Z,14.70
2018-05-12T06:03:06.249Z,14.78
2018-05-12T06:04:06.436Z,14.88
2018-05-12T06:05:06.549Z,15.00
2018-05-12T06:06:06.734Z,15.04
2018-05-12T06:07:07.456Z,14.96
2018-05-12T06:08:07.030Z,15.02
2018-05-12T06:09:07.240Z,15.07
2018-05-12T06:10:07.411Z,15.19
2018-05-12T06:11:07.586Z,15.27
2018-05-12T06:12:07.746Z,15.21
2018-05-12T06:13:07.896Z,15.31
2018-05-12T06:14:08.089Z,15.33
2018-05-12T06:15:08.278Z,15.35
2018-05-12T06:16:08.378Z,15.40
2018-05-12T06:17:08.581Z,15.59
2018-05-12T06:18:08.700Z,15.51
2018-05-12T06:19:08.850Z,15.58
2018-05-12T06:20:09.097Z,15.77
2018-05-12T06:21:09.248Z,15.75
2018-05-12T06:22:09.389Z,15.86
2018-05-12T06:23:09.575Z,15.98
2018-05-12T06:24:12.361Z,16.02
2018-05-12T06:25:09.929Z,16.00
2018-05-12T06:26:10.054Z,16.17
2018-05-12T06:27:10.255Z,16.29
2018-05-12T06:28:10.435Z,16.47
2018-05-12T06:29:10.625Z,16.50
2018-05-12T06:30:10.750Z,16.54
2018-05-12T06:31:10.965Z,16.65
2018-05-12T06:32:11.071Z,16.71
2018-05-12T06:33:11.290Z,16.75
2018-05-12T06:34:11.458Z,16.86
2018-05-12T06:35:11.584Z,16.94
2018-05-12T06:36:11.781Z,16.89
2018-05-12T06:37:11.925Z,16.99
2018-05-12T06:38:12.085Z,17.08
2018-05-12T06:39:12.277Z,17.19
2018-05-12T06:40:12.404Z,17.19
2018-05-12T06:41:12.555Z,17.33
2018-05-12T06:42:12.787Z,17.36
2018-05-12T06:43:12.873Z,17.56
2018-05-12T06:44:13.035Z,17.64
2018-05-12T06:45:13.163Z,17.64
2018-05-12T06:46:13.374Z,17.80
2018-05-12T06:47:13.487Z,17.90
2018-05-12T06:48:13.674Z,17.98
2018-05-12T06:49:13.807Z,17.85
2018-05-12T06:50:13.993Z,18.00
2018-05-12T06:51:14.172Z,17.92
2018-05-12T06:52:14.308Z,18.08
2018-05-12T06:53:14.491Z,18.16
2018-05-12T06:54:14.645Z,18.22
2018-05-12T06:55:14.833Z,18.38
2018-05-12T06:56:14.965Z,18.38
2018-05-12T06:57:15.907Z,18.44
2018-05-12T06:58:16.905Z,18.50
2018-05-12T06:59:16.405Z,18.55
2018-05-12T07:00:15.569Z,18.59
2018-05-12T07:01:15.771Z,18.66
2018-05-12T07:02:15.878Z,18.74
2018-05-12T07:03:16.015Z,18.80
2018-05-12T07:04:16.179Z,18.93
2018-05-12T07:05:16.323Z,18.90
2018-05-12T07:06:16.511Z,18.92
2018-05-12T07:07:17.424Z,18.95
2018-05-12T07:08:16.855Z,19.11
2018-05-12T07:09:16.973Z,19.14
2018-05-12T07:10:17.875Z,19.18
2018-05-12T07:11:17.302Z,19.15
2018-05-12T07:12:17.554Z,19.26
2018-05-12T07:13:17.685Z,19.19
2018-05-12T07:14:17.885Z,19.09
2018-05-12T07:15:18.004Z,19.27
2018-05-12T07:16:18.179Z,19.31
2018-05-12T07:17:18.377Z,19.41
2018-05-12T07:18:19.471Z,19.41
2018-05-12T07:19:18.715Z,19.44
2018-05-12T07:20:18.858Z,19.49
2018-05-12T07:21:19.028Z,19.36
2018-05-12T07:22:19.195Z,19.49
2018-05-12T07:23:19.505Z,19.56
2018-05-12T07:24:19.608Z,19.64
2018-05-12T07:25:19.724Z,19.77
2018-05-12T07:26:19.940Z,19.89
2018-05-12T07:27:20.152Z,19.84
2018-05-12T07:28:20.284Z,19.85
2018-05-12T07:29:20.504Z,19.89
2018-05-12T07:30:20.638Z,19.86
2018-05-12T07:31:21.456Z,19.85
2018-05-12T07:32:20.941Z,19.95
2018-05-12T07:33:21.114Z,20.10
2018-05-12T07:34:21.290Z,20.00
2018-05-12T07:35:21.421Z,20.09
2018-05-12T07:36:21.598Z,19.88
2018-05-12T07:37:21.797Z,20.03
2018-05-12T07:38:21.920Z,20.19
2018-05-12T07:39:22.129Z,20.11
2018-05-12T07:40:22.292Z,20.22
2018-05-12T07:41:22.436Z,20.40
2018-05-12T07:42:22.637Z,20.52
2018-05-12T07:43:22.787Z,20.59
2018-05-12T07:44:22.933Z,20.77
2018-05-12T07:45:23.173Z,20.90
2018-05-12T07:46:23.279Z,20.85
2018-05-12T07:47:23.451Z,20.92
2018-05-12T07:48:23.630Z,20.78
2018-05-12T07:49:23.781Z,20.77
2018-05-12T07:50:24.922Z,20.88
2018-05-12T07:51:24.204Z,20.97
2018-05-12T07:52:24.385Z,21.06
2018-05-12T07:53:24.520Z,21.21
2018-05-12T07:54:24.664Z,21.25
2018-05-12T07:55:24.846Z,21.46
2018-05-12T07:56:25.002Z,21.57
2018-05-12T07:57:25.162Z,21.83
2018-05-12T07:58:25.303Z,22.26
2018-05-12T07:59:25.470Z,22.55
2018-05-12T08:00:25.656Z,22.78
2018-05-12T08:01:26.407Z,22.99
2018-05-12T08:02:25.919Z,23.24
2018-05-12T08:03:26.198Z,23.32
2018-05-12T08:04:26.326Z,23.61
2018-05-12T08:05:31.382Z,23.86
2018-05-12T08:06:26.725Z,23.98
2018-05-12T08:07:26.860Z,24.16
2018-05-12T08:08:27.034Z,24.69
2018-05-12T08:09:27.217Z,24.68
2018-05-12T08:10:27.399Z,25.03
2018-05-12T08:11:27.506Z,25.01
2018-05-12T08:12:27.690Z,25.14
2018-05-12T08:13:29.423Z,25.17
2018-05-12T08:14:28.115Z,25.50
2018-05-12T08:15:28.290Z,25.44
2018-05-12T08:16:28.430Z,25.60
2018-05-12T08:17:28.595Z,25.80
2018-05-12T08:18:28.815Z,25.95
2018-05-12T08:19:29.900Z,26.18
2018-05-12T08:20:29.076Z,26.60
2018-05-12T08:21:29.249Z,26.75
2018-05-12T08:22:30.405Z,26.95
2018-05-12T08:23:29.585Z,27.02
2018-05-12T08:24:29.773Z,26.92
2018-05-12T08:25:29.891Z,26.93
2018-05-12T08:26:30.055Z,26.88
2018-05-12T08:27:30.209Z,26.92
2018-05-12T08:28:30.363Z,27.02
2018-05-12T08:29:30.532Z,27.10
2018-05-12T08:30:30.691Z,27.22
2018-05-12T08:31:30.948Z,27.55
2018-05-12T08:32:41.960Z,27.55
2018-05-12T08:33:31.218Z,27.78
2018-05-12T08:34:31.397Z,27.73
2018-05-12T08:35:31.541Z,27.87
2018-05-12T08:36:31.661Z,28.01
2018-05-12T08:37:31.872Z,27.68
2018-05-12T08:38:32.039Z,27.68
2018-05-12T08:39:32.184Z,27.49
2018-05-12T08:40:33.014Z,27.15
2018-05-12T08:41:32.607Z,27.25
2018-05-12T08:42:32.763Z,27.40
2018-05-12T08:43:32.935Z,27.47
2018-05-12T08:44:33.117Z,27.73
2018-05-12T08:45:33.303Z,27.92
2018-05-12T08:46:33.445Z,27.48
2018-05-12T08:47:33.642Z,27.42
2018-05-12T08:48:33.785Z,27.37
2018-05-12T08:49:34.929Z,26.88
2018-05-12T08:50:34.077Z,26.92
2018-05-12T08:51:34.206Z,26.34
2018-05-12T08:52:34.424Z,26.36
2018-05-12T08:53:34.559Z,26.21
2018-05-12T08:54:34.712Z,25.90
2018-05-12T08:55:34.903Z,25.84
2018-05-12T08:56:35.070Z,25.62
2018-05-12T08:57:35.286Z,25.58
2018-05-12T08:58:35.434Z,25.47
2018-05-12T08:59:35.603Z,25.18
2018-05-12T09:00:35.775Z,25.10
2018-05-12T09:01:36.976Z,24.98
2018-05-12T09:02:36.074Z,24.96
2018-05-12T09:03:36.257Z,25.03
2018-05-12T09:04:36.462Z,25.18
2018-05-12T09:05:36.619Z,25.22
2018-05-12T09:06:36.771Z,25.33
2018-05-12T09:07:37.928Z,25.25
2018-05-12T09:08:37.093Z,25.17
2018-05-12T09:09:37.254Z,25.18
2018-05-12T09:10:37.916Z,25.25
2018-05-12T09:11:37.614Z,25.13
2018-05-12T09:12:37.802Z,25.10
2018-05-12T09:13:37.922Z,25.35
2018-05-12T09:14:38.109Z,25.60
2018-05-12T09:15:38.345Z,25.72
2018-05-12T09:16:38.479Z,25.78
2018-05-12T09:17:38.602Z,25.65
2018-05-12T09:18:38.833Z,25.41
2018-05-12T09:19:39.028Z,25.35
2018-05-12T09:20:39.981Z,25.48
2018-05-12T09:21:39.346Z,25.06
2018-05-12T09:22:39.511Z,24.98
2018-05-12T09:23:39.710Z,24.88
2018-05-12T09:24:40.445Z,25.07
2018-05-12T09:25:40.078Z,24.80
2018-05-12T09:26:40.142Z,24.70
2018-05-12T09:27:40.312Z,24.68
2018-05-12T09:28:40.526Z,24.54
2018-05-12T09:29:40.657Z,24.35
2018-05-12T09:30:40.800Z,24.61
2018-05-12T09:31:41.024Z,25.01
2018-05-12T09:32:41.206Z,25.16
2018-05-12T09:33:41.357Z,25.17
2018-05-12T09:34:46.457Z,25.55
2018-05-12T09:35:41.762Z,25.81
2018-05-12T09:36:41.928Z,26.23
2018-05-12T09:37:42.078Z,26.77
2018-05-12T09:38:42.225Z,27.15
2018-05-12T09:39:42.394Z,27.59
2018-05-12T09:40:42.556Z,27.75
2018-05-12T09:41:42.736Z,28.38
2018-05-12T09:42:42.908Z,28.72
2018-05-12T09:43:43.051Z,28.91
2018-05-12T09:44:46.013Z,29.16
2018-05-12T09:45:43.398Z,29.56
2018-05-12T09:46:43.599Z,29.59
2018-05-12T09:47:43.752Z,30.18
2018-05-12T09:48:43.931Z,29.94
2018-05-12T09:49:44.100Z,29.90
2018-05-12T09:50:44.940Z,29.60
2018-05-12T09:51:44.502Z,30.03
2018-05-12T09:52:44.715Z,30.13
2018-05-12T09:53:44.833Z,30.51
2018-05-12T09:54:44.964Z,30.87
2018-05-12T09:55:45.123Z,30.48
2018-05-12T09:56:46.943Z,29.97
2018-05-12T09:57:45.548Z,29.31
2018-05-12T09:58:45.626Z,28.45
2018-05-12T09:59:45.854Z,28.25
2018-05-12T10:00:46.068Z,28.62
2018-05-12T10:02:00.920Z,28.84
2018-05-12T10:02:46.358Z,29.41
2018-05-12T10:03:46.529Z,29.81
2018-05-12T10:04:46.822Z,30.30
2018-05-12T10:05:48.413Z,30.59
2018-05-12T10:06:47.095Z,30.88
2018-05-12T10:07:47.935Z,31.12
2018-05-12T10:08:47.488Z,31.07
2018-05-12T10:09:47.661Z,31.49
2018-05-12T10:10:48.475Z,31.34
2018-05-12T10:11:47.980Z,31.14
2018-05-12T10:12:48.147Z,30.88
2018-05-12T10:13:48.349Z,29.81
2018-05-12T10:14:49.466Z,28.72
2018-05-12T10:15:48.643Z,28.08
2018-05-12T10:16:48.798Z,27.98
2018-05-12T10:17:49.937Z,27.44
2018-05-12T10:18:49.131Z,27.07
2018-05-12T10:19:49.301Z,26.73
2018-05-12T10:20:49.432Z,26.47
2018-05-12T10:21:49.604Z,26.26
2018-05-12T10:22:49.781Z,26.00
2018-05-12T10:23:49.937Z,25.75
2018-05-12T10:24:52.008Z,25.81
2018-05-12T10:25:50.921Z,25.88
2018-05-12T10:26:50.573Z,26.88
2018-05-12T10:27:50.647Z,27.65
2018-05-12T10:28:50.821Z,27.71
2018-05-12T10:29:51.044Z,27.11
2018-05-12T10:30:51.137Z,27.32
2018-05-12T10:31:51.354Z,28.02
2018-05-12T10:32:51.516Z,28.70
2018-05-12T10:33:51.677Z,28.59
2018-05-12T10:34:52.461Z,28.32
2018-05-12T10:35:52.012Z,28.00
2018-05-12T10:36:52.204Z,27.63
2018-05-12T10:37:52.331Z,27.33
2018-05-12T10:40:32.939Z,27.18
2018-05-12T10:41:24.720Z,27.15
2018-05-12T10:42:24.913Z,26.74
2018-05-12T10:43:25.050Z,26.65
2018-05-12T10:44:25.249Z,26.59
2018-05-12T10:45:25.496Z,26.43
2018-05-12T10:46:25.555Z,26.25
2018-05-12T10:47:25.730Z,26.22
2018-05-12T10:48:25.914Z,26.55
2018-05-12T10:49:26.085Z,27.21
2018-05-12T10:50:26.248Z,28.35
2018-05-12T10:51:26.392Z,28.59
2018-05-12T10:52:26.631Z,28.39
2018-05-12T10:53:26.732Z,28.12
2018-05-12T10:54:26.908Z,27.74
2018-05-12T10:55:27.115Z,27.52
2018-05-12T10:56:27.259Z,27.35
2018-05-12T10:57:28.177Z,27.39
2018-05-12T10:58:27.696Z,28.19
2018-05-12T10:59:27.896Z,28.51
2018-05-12T11:00:28.025Z,28.86
2018-05-12T11:01:28.196Z,29.16
2018-05-12T11:02:28.405Z,29.60
2018-05-12T11:03:28.526Z,30.08
2018-05-12T11:04:28.760Z,30.77
2018-05-12T11:05:28.889Z,31.12
2018-05-12T11:06:29.106Z,31.43
2018-05-12T11:07:29.296Z,31.80
2018-05-12T11:08:29.407Z,31.85
2018-05-12T11:09:29.627Z,31.94
2018-05-12T11:10:29.785Z,31.97
2018-05-12T11:11:29.928Z,32.00
2018-05-12T11:12:30.115Z,32.08
2018-05-12T11:13:30.345Z,32.01
2018-05-12T11:14:30.456Z,32.03
2018-05-12T11:15:31.652Z,31.58
2018-05-12T11:16:30.782Z,30.73
2018-05-12T11:19:03.054Z,29.61
2018-05-12T11:20:03.239Z,28.88
2018-05-12T11:21:03.422Z,28.42
2018-05-12T11:22:03.548Z,28.67
2018-05-12T11:23:03.782Z,29.41
2018-05-12T11:24:03.929Z,30.13
2018-05-12T11:25:04.096Z,30.80
2018-05-12T11:26:04.278Z,31.27
2018-05-12T11:27:04.423Z,31.54
2018-05-12T11:28:05.116Z,31.74
2018-05-12T11:29:04.797Z,31.90
2018-05-12T11:30:05.040Z,32.30
2018-05-12T11:31:05.179Z,32.46
2018-05-12T11:32:05.388Z,32.55
2018-05-12T11:33:05.575Z,31.55
2018-05-12T11:34:05.845Z,30.69
2018-05-12T11:35:05.890Z,29.60
2018-05-12T11:36:06.089Z,28.75
2018-05-12T11:37:06.361Z,28.35
2018-05-12T11:38:06.419Z,28.29
2018-05-12T11:39:08.155Z,29.51
2018-05-12T11:40:06.770Z,30.37
2018-05-12T11:41:06.957Z,31.03
2018-05-12T11:42:07.232Z,31.70
2018-05-12T11:43:07.324Z,31.21
2018-05-12T11:44:07.580Z,31.09
2018-05-12T11:45:07.677Z,31.54
2018-05-12T11:46:08.638Z,32.11
2018-05-12T11:47:08.045Z,32.65
2018-05-12T11:48:08.253Z,33.05
2018-05-12T11:49:08.405Z,33.53
2018-05-12T11:50:08.708Z,33.81
2018-05-12T11:51:09.632Z,34.05
2018-05-12T11:52:09.629Z,34.08
2018-05-12T11:53:09.032Z,33.98
2018-05-12T11:54:09.330Z,34.03
2018-05-12T11:55:09.397Z,33.96
2018-05-12T11:56:09.590Z,33.83
2018-05-12T11:57:09.749Z,34.14
2018-05-12T11:58:09.929Z,33.53
2018-05-12T11:59:10.080Z,33.80
2018-05-12T12:00:10.277Z,34.08
2018-05-12T12:01:10.457Z,34.25
2018-05-12T12:02:10.601Z,34.66
2018-05-12T12:03:10.886Z,35.10
2018-05-12T12:04:10.972Z,34.97
2018-05-12T12:05:11.188Z,35.24
2018-05-12T12:06:11.372Z,35.24
2018-05-12T12:07:11.537Z,35.19
2018-05-12T12:08:12.653Z,35.15
2018-05-12T12:09:11.922Z,35.31
2018-05-12T12:10:12.082Z,35.07
2018-05-12T12:11:12.283Z,35.39
2018-05-12T12:12:12.462Z,35.30
2018-05-12T12:13:12.672Z,34.92
2018-05-12T12:14:13.658Z,34.58
2018-05-12T12:15:13.087Z,34.35
2018-05-12T12:16:13.271Z,34.01
2018-05-12T12:17:13.495Z,33.98
2018-05-12T12:18:13.626Z,34.01
2018-05-12T12:19:13.829Z,34.05
2018-05-12T12:20:13.923Z,33.94
2018-05-12T12:21:14.120Z,33.89
2018-05-12T12:22:15.144Z,34.06
2018-05-12T12:23:14.430Z,34.06
2018-05-12T12:24:14.655Z,34.47
2018-05-12T12:25:14.823Z,34.40
2018-05-12T12:26:14.956Z,34.70
2018-05-12T12:27:15.163Z,33.96
2018-05-12T12:28:15.373Z,34.21
2018-05-12T12:29:15.559Z,34.18
2018-05-12T12:30:15.717Z,34.20
2018-05-12T12:31:15.868Z,34.27
2018-05-12T12:32:16.084Z,34.50
2018-05-12T12:33:16.311Z,34.71
2018-05-12T12:34:16.409Z,34.61
2018-05-12T12:35:17.159Z,34.71
2018-05-12T12:36:16.835Z,34.24
2018-05-12T12:37:16.958Z,33.94
2018-05-12T12:38:17.139Z,34.33
2018-05-12T12:39:17.350Z,34.70
2018-05-12T12:40:17.513Z,34.71
2018-05-12T12:41:17.649Z,34.86
2018-05-12T12:42:17.830Z,34.93
2018-05-12T12:43:18.016Z,35.02
2018-05-12T12:44:18.172Z,34.90
2018-05-12T12:45:18.389Z,34.51
2018-05-12T12:46:33.146Z,34.52
2018-05-12T12:47:18.850Z,35.02
2018-05-12T12:48:18.985Z,35.36
2018-05-12T12:49:19.178Z,35.78
2018-05-12T12:50:19.319Z,35.92
2018-05-12T12:51:20.162Z,35.82
2018-05-12T12:52:19.746Z,36.20
2018-05-12T12:53:19.920Z,36.24
2018-05-12T12:54:20.089Z,36.36
2018-05-12T12:55:20.270Z,36.01
2018-05-12T12:56:20.465Z,35.95
2018-05-12T12:57:20.599Z,36.08
2018-05-12T12:58:20.829Z,36.07
2018-05-12T12:59:21.031Z,36.05
2018-05-12T13:00:21.204Z,35.85
2018-05-12T13:01:21.400Z,35.74
2018-05-12T13:02:21.630Z,35.83
2018-05-12T13:03:21.755Z,35.76
2018-05-12T13:04:21.932Z,35.67
2018-05-12T13:05:22.143Z,35.93
2018-05-12T13:06:22.376Z,35.49
2018-05-12T13:07:22.516Z,35.52
2018-05-12T13:08:22.683Z,35.85
2018-05-12T13:09:22.906Z,35.58
2018-05-12T13:10:23.106Z,35.37
2018-05-12T13:11:23.229Z,35.29
2018-05-12T13:12:24.180Z,35.78
2018-05-12T13:13:23.596Z,35.97
2018-05-12T13:14:24.662Z,35.93
2018-05-12T13:15:23.983Z,36.01
2018-05-12T13:16:24.677Z,36.21
2018-05-12T13:17:25.156Z,36.47
2018-05-12T13:18:24.619Z,36.09
2018-05-12T13:19:24.835Z,36.05
2018-05-12T13:20:24.967Z,35.73
2018-05-12T13:21:25.166Z,35.92
2018-05-12T13:22:25.376Z,36.09
2018-05-12T13:23:26.139Z,36.12
2018-05-12T13:24:25.676Z,36.17
2018-05-12T13:25:25.899Z,35.89
2018-05-12T13:26:26.076Z,35.90
2018-05-12T13:27:26.308Z,35.85
2018-05-12T13:28:26.455Z,35.34
2018-05-12T13:29:26.611Z,35.29
2018-05-12T13:30:26.775Z,35.48
2018-05-12T13:31:26.970Z,35.53
2018-05-12T13:32:27.219Z,35.76
2018-05-12T13:33:27.349Z,35.56
2018-05-12T13:34:27.550Z,36.00
2018-05-12T13:35:27.687Z,36.30
2018-05-12T13:36:27.873Z,36.20
2018-05-12T13:37:28.070Z,36.05
2018-05-12T13:38:28.239Z,35.71
2018-05-12T13:39:28.389Z,35.76
2018-05-12T13:40:28.607Z,35.74
2018-05-12T13:41:28.752Z,35.31
2018-05-12T13:42:29.649Z,35.56
2018-05-12T13:43:29.057Z,35.26
2018-05-12T13:44:29.228Z,35.04
2018-05-12T13:45:29.419Z,35.05
2018-05-12T13:46:29.648Z,34.73
2018-05-12T13:47:29.809Z,33.86
2018-05-12T13:48:29.998Z,33.42
2018-05-12T13:49:30.188Z,33.55
2018-05-12T13:50:30.380Z,34.03
2018-05-12T13:51:30.595Z,34.36
2018-05-12T13:52:30.779Z,34.61
2018-05-12T13:53:31.642Z,34.75
2018-05-12T13:54:31.188Z,34.73
2018-05-12T13:55:31.379Z,34.57
2018-05-12T13:56:31.571Z,34.90
2018-05-12T13:57:31.693Z,35.18
2018-05-12T13:58:31.908Z,35.64
2018-05-12T13:59:32.633Z,35.95
2018-05-12T14:00:32.287Z,36.00
2018-05-12T14:01:32.461Z,36.14
2018-05-12T14:02:32.645Z,36.12
2018-05-12T14:03:32.886Z,36.20
2018-05-12T14:04:33.017Z,36.39
2018-05-12T14:05:33.277Z,36.18
2018-05-12T14:06:33.440Z,35.97
2018-05-12T14:07:33.577Z,36.07
2018-05-12T14:08:33.755Z,36.25
2018-05-12T14:09:33.918Z,36.04
2018-05-12T14:10:34.074Z,35.80
2018-05-12T14:11:34.243Z,35.41
2018-05-12T14:12:34.473Z,34.78
2018-05-12T14:13:34.658Z,33.42
2018-05-12T14:14:35.662Z,33.02
2018-05-12T14:15:34.957Z,33.61
2018-05-12T14:16:35.634Z,34.20
2018-05-12T14:17:35.318Z,34.86
2018-05-12T14:18:35.538Z,35.34
2018-05-12T14:19:36.641Z,35.31
2018-05-12T14:20:35.985Z,34.60
2018-05-12T14:21:36.171Z,34.47
2018-05-12T14:22:39.221Z,34.81
2018-05-12T14:23:36.471Z,35.10
2018-05-12T14:24:36.657Z,34.93
2018-05-12T14:25:37.689Z,34.62
2018-05-12T14:26:36.929Z,34.96
2018-05-12T14:27:37.102Z,34.86
2018-05-12T14:28:44.313Z,34.81
2018-05-12T14:29:37.462Z,34.89
2018-05-12T14:30:37.710Z,34.77
2018-05-12T14:31:44.660Z,35.15
2018-05-12T14:32:38.093Z,34.97
2018-05-12T14:33:39.149Z,35.07
2018-05-12T14:34:39.206Z,35.11
2018-05-12T14:35:38.700Z,35.37
2018-05-12T14:36:39.645Z,35.23
2018-05-12T14:37:39.079Z,35.18
2018-05-12T14:38:39.293Z,35.27
2018-05-12T14:39:39.471Z,35.24
2018-05-12T14:40:39.616Z,35.56
2018-05-12T14:41:40.719Z,35.34
2018-05-12T14:42:40.042Z,35.66
2018-05-12T14:43:40.181Z,35.70
2018-05-12T14:44:40.337Z,35.76
2018-05-12T14:45:40.521Z,35.51
2018-05-12T14:46:41.142Z,35.17
2018-05-12T14:47:40.885Z,35.31
2018-05-12T14:48:41.677Z,35.46
2018-05-12T14:49:42.163Z,35.27
2018-05-12T14:52:30.819Z,33.99
2018-05-12T14:53:25.589Z,33.71
2018-05-12T14:54:22.812Z,33.58
2018-05-12T14:55:24.401Z,33.64
2018-05-12T14:56:23.094Z,33.52
2018-05-12T14:57:23.277Z,33.45
2018-05-12T14:58:23.474Z,32.83
2018-05-12T14:59:23.584Z,32.45
2018-05-12T15:00:23.847Z,32.01
2018-05-12T15:01:23.966Z,31.59
2018-05-12T15:02:24.146Z,32.15
2018-05-12T15:03:24.278Z,32.58
2018-05-12T15:04:24.561Z,32.83
2018-05-12T15:05:24.697Z,33.19
2018-05-12T15:06:24.829Z,33.53
2018-05-12T15:07:25.879Z,33.94
2018-05-12T15:08:25.245Z,34.11
2018-05-12T15:09:39.892Z,33.67
2018-05-12T15:10:25.569Z,33.68
2018-05-12T15:11:25.753Z,32.97
2018-05-12T15:12:26.432Z,32.07
2018-05-12T15:13:26.060Z,31.76
2018-05-12T15:14:26.268Z,31.99
2018-05-12T15:15:27.417Z,32.03
2018-05-12T15:16:26.567Z,32.27
2018-05-12T15:17:26.722Z,32.63
2018-05-12T15:18:26.909Z,32.63
2018-05-12T15:19:27.077Z,32.53
2018-05-12T15:20:27.225Z,32.70
2018-05-12T15:21:27.490Z,32.16
2018-05-12T15:22:27.572Z,31.61
2018-05-12T15:23:27.780Z,31.69
2018-05-12T15:24:27.897Z,31.89
2018-05-12T15:25:28.102Z,32.41
2018-05-12T15:27:03.945Z,32.70
2018-05-12T15:27:28.381Z,32.73
2018-05-12T15:28:28.596Z,32.48
2018-05-12T15:29:28.745Z,32.43
2018-05-12T15:30:28.927Z,32.53
2018-05-12T15:31:29.085Z,32.52
2018-05-12T15:32:29.964Z,32.40
2018-05-12T15:33:36.365Z,32.46
2018-05-12T15:34:29.635Z,32.55
2018-05-12T15:35:29.757Z,32.77
2018-05-12T15:36:29.937Z,33.07
2018-05-12T15:37:30.132Z,33.34
2018-05-12T15:38:30.333Z,33.40
2018-05-12T15:39:30.474Z,33.55
2018-05-12T15:40:30.665Z,33.49
2018-05-12T15:41:30.817Z,33.50
2018-05-12T15:42:37.931Z,33.12
2018-05-12T15:43:31.130Z,32.82
2018-05-12T15:44:31.316Z,32.90
2018-05-12T15:45:31.455Z,32.55
2018-05-12T15:48:03.786Z,30.99
2018-05-12T15:49:04.904Z,30.27
2018-05-12T15:50:04.212Z,30.24
2018-05-12T15:51:05.271Z,30.57
2018-05-12T15:52:14.478Z,30.69
2018-05-12T15:53:04.913Z,30.77
2018-05-12T15:54:04.855Z,31.03
2018-05-12T15:55:05.965Z,31.43
2018-05-12T15:56:05.190Z,31.51
2018-05-12T15:57:20.306Z,31.70
2018-05-12T15:58:05.582Z,31.84
2018-05-12T15:59:05.730Z,31.76
2018-05-12T16:00:05.943Z,31.93
2018-05-12T16:01:06.126Z,31.84
2018-05-12T16:02:06.262Z,31.66
2018-05-12T16:03:06.449Z,31.07